Time;durP1;ratioP1;P1;durP2;ratioP2;P2;SDS_P1;SDS_P2;PMS_P1;PMS_P2;Temp;Humidity;BMP_temperature;BMP_pressure;BME280_temperature;BME280_humidity;BME280_pressure;Samples;Min_cycle;Max_cycle;Signal;HPM_P1;HPM_P2
2021/05/05 05:31:10;;;;;;;;;;;;;;;12.29;65.32;98890.22;1779957;77;25975;-64
2021/05/05 05:33:37;;;;;;;;;;;;;;;12.47;65.12;98894.65;1796033;79;26057;-64
2021/05/05 05:36:04;;;;;;;;;;;;;;;12.59;64.61;98886.95;1800119;79;25779;-64
2021/05/05 05:38:30;;;;;;;;;;;;;;;12.70;63.54;98892.03;1798965;79;25812;-64
2021/05/05 05:40:57;;;;;;;;;;;;;;;12.80;64.60;98898.80;1797707;79;25670;-64
2021/05/05 05:43:23;;;;;;;;;;;;;;;12.93;62.90;98904.87;1797705;79;25614;-63
2021/05/05 05:45:50;;;;;;;;;;;;;;;12.99;63.37;98885.80;1795767;79;25599;-63
2021/05/05 05:48:16;;;;;;;;;;;;;;;13.08;62.34;98886.35;1795087;79;25706;-63
2021/05/05 05:50:42;;;;;;;;;;;;;;;13.16;62.86;98883.76;1796851;79;25558;-64
2021/05/05 05:53:09;;;;;;;;;;;;;;;13.24;62.18;98881.39;1798563;79;25677;-64
2021/05/05 05:55:35;;;;;;;;;;;;;;;13.40;62.88;98898.95;1799027;79;26118;-65
2021/05/05 05:58:03;;;;;;;;;;;;;;;13.51;60.42;98901.87;1800300;79;25888;-64
2021/05/05 06:00:30;;;;;;;;;;;;;;;13.49;61.55;98896.80;1800830;79;25709;-65
2021/05/05 06:02:56;;;;;;;;;;;;;;;13.54;60.30;98900.56;1796962;79;25603;-64
2021/05/05 06:05:23;;;;;;;;;;;;;;;13.55;61.26;98895.36;1798967;79;25559;-65
2021/05/05 06:07:49;;;;;;;;;;;;;;;13.59;60.82;98890.76;1796851;79;25539;-64
2021/05/05 06:10:16;;;;;;;;;;;;;;;13.63;60.54;98896.24;1800276;79;25532;-64
2021/05/05 06:12:43;;;;;;;;;;;;;;;13.71;60.71;98895.80;1796695;79;26689;-64
2021/05/05 06:15:10;;;;;;;;;;;;;;;13.78;60.71;98901.34;1798661;79;26332;-64
2021/05/05 06:17:37;;;;;;;;;;;;;;;13.81;59.02;98889.75;1796710;79;25997;-64
2021/05/05 06:20:06;;;;;;;;;;;;;;;13.76;58.75;98894.14;1796751;79;25627;-64
2021/05/05 06:22:32;;;;;;;;;;;;;;;13.73;60.02;98886.13;1796303;79;25663;-65
2021/05/05 06:24:58;;;;;;;;;;;;;;;13.78;60.11;98887.17;1795544;79;26037;-64
2021/05/05 06:27:25;;;;;;;;;;;;;;;13.90;59.81;98885.41;1797991;77;25572;-64
2021/05/05 06:29:51;;;;;;;;;;;;;;;13.96;59.46;98872.50;1799751;79;25738;-64
2021/05/05 06:32:17;;;;;;;;;;;;;;;14.01;59.84;98875.47;1804744;78;25715;-63
2021/05/05 06:34:44;;;;;;;;;;;;;;;14.04;58.94;98868.53;1804177;78;25604;-64
2021/05/05 06:37:10;;;;;;;;;;;;;;;14.04;59.71;98865.80;1807627;79;25773;-63
2021/05/05 06:39:36;;;;;;;;;;;;;;;14.11;59.53;98859.11;1805891;79;25611;-63
2021/05/05 06:42:04;;;;;;;;;;;;;;;14.25;59.37;98863.95;1809995;79;25543;-61
2021/05/05 06:44:31;;;;;;;;;;;;;;;14.40;58.20;98867.06;1802837;79;25697;-62
2021/05/05 06:46:57;;;;;;;;;;;;;;;14.52;58.77;98862.77;1809865;79;26523;-61
2021/05/05 06:49:24;;;;;;;;;;;;;;;14.67;58.04;98862.38;1806044;78;25755;-62
2021/05/05 06:51:52;;;;;;;;;;;;;;;14.75;58.39;98861.30;1809183;79;25584;-62
2021/05/05 06:54:18;;;;;;;;;;;;;;;14.93;58.46;98863.42;1807221;78;25701;-62
2021/05/05 06:56:45;;;;;;;;;;;;;;;15.00;55.44;98869.53;1806343;79;25666;-61
2021/05/05 06:59:11;;;;;;;;;;;;;;;14.95;56.43;98861.14;1806731;79;25570;-62
2021/05/05 07:01:39;;;;;;;;;;;;;;;14.89;55.67;98869.42;1805022;79;25915;-63
2021/05/05 07:04:09;;;;;;;;;;;;;;;14.88;55.24;98867.84;1806075;79;25707;-62
2021/05/05 07:06:35;;;;;;;;;;;;;;;15.03;56.04;98862.75;1805167;79;25621;-63
2021/05/05 07:09:04;;;;;;;;;;;;;;;15.27;54.20;98860.66;1810387;79;26261;-63
2021/05/05 07:11:34;;;;;;;;;;;;;;;15.58;56.41;98855.29;1805316;78;25603;-63
2021/05/05 07:14:00;;;;;;;;;;;;;;;15.90;53.74;98854.75;1811279;79;26192;-63
2021/05/05 07:16:26;;;;;;;;;;;;;;;15.97;53.62;98863.00;1805212;78;25640;-63
2021/05/05 07:18:53;;;;;;;;;;;;;;;15.90;52.60;98854.75;1808064;79;25237;-60
2021/05/05 07:21:19;;;;;;;;;;;;;;;15.78;52.47;98870.86;1775118;79;25749;-60
2021/05/05 07:23:45;;;;;;;;;;;;;;;15.61;52.38;98852.38;1806798;79;25532;-61
2021/05/05 07:26:12;;;;;;;;;;;;;;;15.45;53.06;98862.19;1805974;79;26159;-61
2021/05/05 07:28:39;;;;;;;;;;;;;;;15.37;52.55;98873.59;1807347;78;26280;-61
2021/05/05 07:31:06;;;;;;;;;;;;;;;15.30;52.98;98849.78;1803378;78;26328;-59
2021/05/05 07:33:34;;;;;;;;;;;;;;;15.23;53.09;98851.09;1766939;80;25620;-60
2021/05/05 07:36:01;;;;;;;;;;;;;;;15.21;53.29;98859.45;1703244;83;25603;-61
2021/05/05 07:48:59;;;;;;;;;;;;;;;15.15;51.39;98842.64;1729361;82;25646;-63
2021/05/05 07:51:24;;;;;;;;;;;;;;;15.20;50.37;98825.96;1729405;82;25889;-63
2021/05/05 07:53:52;;;;;;;;;;;;;;;15.34;51.20;98829.97;1733078;82;25621;-62
2021/05/05 07:56:19;;;;;;;;;;;;;;;15.49;50.76;98824.28;1724862;82;26232;-62
2021/05/05 07:58:45;;;;;;;;;;;;;;;15.56;48.81;98825.48;1731453;82;25557;-62
2021/05/05 08:01:12;;;;;;;;;;;;;;;15.61;48.86;98822.40;1734166;82;25476;-64
2021/05/05 08:03:39;;;;;;;;;;;;;;;15.55;48.76;98831.52;1731973;82;25837;-63
2021/05/05 08:06:06;;;;;;;;;;;;;;;15.60;49.28;98837.98;1733331;82;25638;-63
2021/05/05 08:08:33;;;;;;;;;;;;;;;15.67;49.05;98835.30;1733117;82;25609;-63
2021/05/05 08:10:59;;;;;;;;;;;;;;;15.70;49.45;98839.23;1723460;82;25708;-62
2021/05/05 08:13:26;;;;;;;;;;;;;;;15.74;48.76;98837.30;1720454;82;25626;-63
2021/05/05 08:15:55;;;;;;;;;;;;;;;15.60;47.87;98819.49;1717081;82;25778;-63
2021/05/05 08:18:21;;;;;;;;;;;;;;;15.65;48.94;98818.55;1699311;82;25682;-63
2021/05/05 08:20:49;;;;;;;;;;;;;;;16.06;48.58;98804.80;1719761;83;25621;-63
2021/05/05 08:23:17;;;;;;;;;;;;;;;16.48;47.82;98808.67;1754880;81;26086;-63
2021/05/05 08:25:45;;;;;;;;;;;;;;;16.60;45.66;98812.41;1743287;81;25711;-64
2021/05/05 08:28:12;;;;;;;;;;;;;;;16.53;46.57;98806.94;1730958;81;25695;-63
2021/05/05 08:30:39;;;;;;;;;;;;;;;16.54;46.39;98824.88;1727974;81;25619;-63
2021/05/05 08:33:09;;;;;;;;;;;;;;;16.54;47.07;98808.51;1778371;79;25789;-63
2021/05/05 08:35:36;;;;;;;;;;;;;;;16.63;47.74;98810.28;1754084;79;25763;-62
2021/05/05 08:38:03;;;;;;;;;;;;;;;16.74;46.70;98814.42;1792037;79;25682;-63
2021/05/05 08:40:31;;;;;;;;;;;;;;;16.76;47.68;98812.08;1787614;79;28085;-62
2021/05/05 08:42:58;;;;;;;;;;;;;;;16.73;47.12;98809.52;1790536;78;25571;-63
2021/05/05 08:45:28;;;;;;;;;;;;;;;16.69;46.77;98813.44;1786684;78;25597;-64
2021/05/05 08:47:56;;;;;;;;;;;;;;;16.54;45.97;98818.06;1788744;79;25844;-63
2021/05/05 08:50:25;;;;;;;;;;;;;;;16.40;47.05;98807.88;1786077;79;25579;-62
2021/05/05 08:52:51;;;;;;;;;;;;;;;16.32;46.98;98824.02;1785961;79;26559;-62
2021/05/05 08:55:21;;;;;;;;;;;;;;;16.14;46.46;98815.17;1785612;79;25614;-62
2021/05/05 08:57:48;;;;;;;;;;;;;;;16.00;47.28;98825.41;1760442;79;26050;-62
2021/05/05 09:00:24;;;;;;;;;;;;;;;15.85;47.10;98826.48;1787588;79;25611;-62
2021/05/05 09:02:50;;;;;;;;;;;;;;;15.73;47.99;98820.72;1791565;78;25630;-62
2021/05/05 09:05:17;;;;;;;;;;;;;;;15.61;48.28;98819.12;1788084;79;26971;-62
2021/05/05 09:08:02;;;;;;;4.58;1.85;;;;;;;15.61;48.60;98833.30;1805076;78;25516;-63
2021/05/05 09:10:29;;;;;;;2.45;1.85;;;;;;;15.44;48.00;98821.91;1774191;79;25632;-63
2021/05/05 09:12:56;;;;;;;5.30;1.87;;;;;;;15.39;47.94;98814.08;1716162;82;26677;-64
2021/05/05 09:15:24;;;;;;;2.40;1.80;;;;;;;15.37;48.66;98816.38;1748978;81;26159;-64
2021/05/05 09:17:54;;;;;;;3.08;1.82;;;;;;;15.40;48.85;98812.13;1719405;81;25703;-65
2021/05/05 09:23:07;;;;;;;4.60;2.10;;;;;;;15.58;48.42;98823.16;1777330;78;27924;-64
2021/05/05 09:25:41;;;;;;;4.22;2.30;;;;;;;15.56;49.20;98829.00;1755715;80;25695;-64
2021/05/05 09:28:16;;;;;;;4.35;1.65;;;;;;;15.56;49.15;98820.03;1744985;81;28129;-64
2021/05/05 09:30:53;;;;;;;4.80;2.30;;;;;;;15.54;50.07;98823.72;1744554;81;25892;-63
2021/05/05 09:33:34;;;;;;;4.08;1.67;;;;;;;15.47;50.14;98823.08;1734469;81;25652;-63
2021/05/05 09:36:07;;;;;;;3.67;2.08;;;;;;;15.40;50.57;98817.58;1742304;81;25623;-63
2021/05/05 09:38:49;;;;;;;3.92;2.00;;;;;;;15.37;50.19;98820.46;1745706;81;25627;-64
2021/05/05 09:41:24;;;;;;;3.25;1.75;;;;;;;15.27;49.81;98823.32;1745056;81;25857;-64
2021/05/05 09:43:53;;;;;;;2.60;1.55;;;;;;;15.22;50.29;98820.14;1743655;81;25635;-63
2021/05/05 09:46:41;;;;;;;5.05;2.10;;;;;;;15.20;50.31;98824.59;1734038;81;25699;-64
2021/05/05 09:49:34;;;;;;;10.08;2.22;;;;;;;15.17;50.17;98810.39;1743854;81;25902;-64
2021/05/05 09:52:24;;;;;;;4.20;2.08;;;;;;;15.20;50.98;98810.20;1741157;81;25709;-63
2021/05/05 09:54:58;;;;;;;;;;;;;;;15.35;51.41;98812.48;1721780;82;25822;-63
2021/05/05 09:57:32;;;;;;;3.52;1.87;;;;;;;15.44;50.42;98817.81;1718451;82;25679;-63
2021/05/05 10:00:07;;;;;;;3.65;2.35;;;;;;;15.39;51.12;98814.64;1689797;83;25694;-63
2021/05/05 10:02:56;;;;;;;4.05;2.25;;;;;;;15.40;51.85;98809.41;1722540;81;25696;-63
2021/05/05 10:05:26;;;;;;;4.03;2.17;;;;;;;15.49;52.35;98816.66;1718796;82;25679;-64
2021/05/05 10:07:59;;;;;;;5.85;2.33;;;;;;;15.52;52.19;98813.19;1705135;82;26070;-63
2021/05/05 10:10:33;;;;;;;3.80;2.12;;;;;;;15.46;52.46;98810.60;1703217;82;25686;-63
2021/05/05 10:13:03;;;;;;;7.03;2.35;;;;;;;15.52;52.55;98815.14;1704903;82;25656;-62
2021/05/05 10:15:32;;;;;;;3.62;2.80;;;;;;;15.52;53.04;98815.14;1705227;82;25792;-61
2021/05/05 10:18:00;;;;;;;4.47;2.60;;;;;;;15.47;52.37;98812.95;1703432;82;25634;-61
2021/05/05 10:20:29;;;;;;;6.28;3.00;;;;;;;15.39;53.25;98814.08;1703525;82;25739;-62
2021/05/05 10:23:00;;;;;;;4.95;2.25;;;;;;;15.37;53.78;98816.97;1704052;82;25655;-63
2021/05/05 10:25:28;;;;;;;3.20;2.37;;;;;;;15.29;54.07;98820.22;1704122;82;25689;-61
2021/05/05 10:27:56;;;;;;;5.22;2.62;;;;;;;15.17;53.98;98830.82;1725921;81;25725;-62
2021/05/05 10:30:30;;;;;;;4.25;3.10;;;;;;;15.05;54.57;98833.80;1702881;82;25805;-62
2021/05/05 10:32:57;;;;;;;6.75;2.70;;;;;;;14.92;55.09;98828.63;1702907;82;25811;-62
2021/05/05 10:35:25;;;;;;;7.55;3.22;;;;;;;14.84;56.60;98825.62;1704269;82;25952;-62
2021/05/05 10:37:59;;;;;;;4.65;2.60;;;;;;;14.71;56.74;98822.39;1703379;82;25711;-62
2021/05/05 10:40:35;;;;;;;4.08;2.75;;;;;;;14.59;57.59;98825.92;1702527;82;26333;-62
2021/05/05 10:43:06;;;;;;;2.30;2.00;;;;;;;14.41;58.58;98816.95;1702432;82;25653;-61
2021/05/05 10:45:39;;;;;;;4.62;2.58;;;;;;;14.24;58.52;98827.05;1704606;82;25709;-61
2021/05/05 10:48:19;;;;;;;5.22;2.80;;;;;;;14.02;59.00;98826.75;1703980;82;26175;-61
2021/05/05 10:50:54;;;;;;;4.95;2.85;;;;;;;13.79;60.04;98834.41;1706010;82;25710;-61
2021/05/05 10:53:26;;;;;;;3.95;2.67;;;;;;;13.57;60.32;98838.73;1703290;82;25847;-61
2021/05/05 10:55:58;;;;;;;4.03;2.85;;;;;;;13.42;61.20;98841.78;1702448;82;25709;-62
2021/05/05 10:58:31;;;;;;;6.85;3.50;;;;;;;13.27;61.96;98847.51;1704497;82;25895;-63
2021/05/05 11:01:07;;;;;;;4.20;2.70;;;;;;;13.12;63.26;98840.27;1704676;82;25421;-62
2021/05/05 11:03:49;;;;;;;4.53;2.90;;;;;;;12.99;63.21;98837.50;1704106;82;25477;-61
2021/05/05 11:06:40;;;;;;;7.87;2.92;;;;;;;12.88;63.85;98842.16;1703916;82;25640;-62
2021/05/05 11:09:30;;;;;;;6.03;2.77;;;;;;;12.82;64.88;98840.91;1725579;81;26398;-62
2021/05/05 11:11:56;;;;;;;5.85;3.27;;;;;;;12.75;65.61;98849.47;1672386;85;27019;-63
2021/05/05 11:14:32;;;;;;;6.22;3.67;;;;;;;12.65;66.66;98846.75;1673013;85;25692;-62
2021/05/05 11:17:08;;;;;;;7.55;3.40;;;;;;;12.58;66.73;98845.27;1674235;84;26569;-61
2021/05/05 11:19:43;;;;;;;3.70;3.40;;;;;;;12.51;67.85;98846.71;1673925;84;25803;-62
2021/05/05 11:22:21;;;;;;;6.12;3.25;;;;;;;12.43;68.45;98842.83;1674881;84;25719;-62
2021/05/05 11:24:51;;;;;;;4.17;3.40;;;;;;;12.37;69.15;98842.91;1672669;84;25824;-62
2021/05/05 11:27:38;;;;;;;3.20;2.90;;;;;;;12.27;69.52;98842.32;1670331;84;26576;-61
2021/05/05 11:30:38;;;;;;;4.72;3.52;;;;;;;12.22;68.94;98841.25;1653816;85;25681;-61
2021/05/05 11:33:07;;;;;;;6.25;3.05;;;;;;;12.23;69.63;98849.61;1668231;85;25906;-61
2021/05/05 11:35:35;;;;;;;5.72;3.45;;;;;;;12.22;69.52;98840.47;1676410;83;26134;-70
2021/05/05 11:38:24;;;;;;;4.85;4.10;;;;;;;12.22;70.73;98847.25;1671717;85;25822;-70
2021/05/05 11:40:59;;;;;;;6.53;3.80;;;;;;;12.17;70.52;98853.72;1672713;85;26048;-70
2021/05/05 11:43:28;;;;;;;4.92;3.10;;;;;;;12.11;70.72;98847.03;1672949;83;25670;-68
2021/05/05 11:45:59;;;;;;;7.50;4.37;;;;;;;12.07;71.29;98851.02;1671974;83;25741;-70
2021/05/05 11:48:29;;;;;;;5.35;4.40;;;;;;;12.02;71.10;98847.78;1672350;83;25757;-69
2021/05/05 11:50:57;;;;;;;5.42;3.87;;;;;;;11.96;72.00;98849.41;1656764;85;26034;-69
2021/05/05 11:53:36;;;;;;;6.50;4.35;;;;;;;11.93;71.86;98857.45;1677090;83;25629;-71
2021/05/05 11:56:15;;;;;;;6.33;4.60;;;;;;;11.90;72.68;98858.94;1675433;83;25666;-69
2021/05/05 11:58:55;;;;;;;6.30;5.08;;;;;;;11.87;72.88;98867.77;1648347;85;25735;-70
2021/05/05 12:01:35;;;;;;;6.33;4.80;;;;;;;11.85;73.36;98863.81;1674298;83;25724;-71
2021/05/05 12:04:21;;;;;;;6.08;4.83;;;;;;;11.83;73.16;98859.33;1676169;83;26034;-73
2021/05/05 12:06:57;;;;;;;8.93;5.45;;;;;;;11.81;73.30;98873.22;1675013;84;25336;-71
2021/05/05 12:09:33;;;;;;;5.70;4.25;;;;;;;11.75;74.41;98880.06;1673423;83;25725;-74
2021/05/05 12:12:20;;;;;;;7.42;4.53;;;;;;;11.70;75.91;98892.52;1654764;84;25733;-76
2021/05/05 12:14:53;;;;;;;6.90;5.10;;;;;;;11.60;75.54;98889.76;1647102;85;25760;-76
2021/05/05 12:20:12;;;;;;;5.83;4.87;;;;;;;11.38;76.46;98907.39;1674315;83;25653;-76
2021/05/05 12:22:54;;;;;;;8.15;4.75;;;;;;;11.32;76.33;98897.94;1671771;85;25866;-80
2021/05/05 12:25:28;;;;;;;10.70;5.22;;;;;;;11.27;77.34;98907.12;1675488;85;26340;-78
2021/05/05 12:28:17;;;;;;;5.97;4.55;;;;;;;11.19;76.74;98906.71;1672878;85;25728;-78
2021/05/05 12:30:52;;;;;;;6.65;4.25;;;;;;;11.13;77.53;98906.16;1673345;85;27189;-80
2021/05/05 12:33:37;;;;;;;6.85;4.20;;;;;;;11.07;76.80;98908.91;1669374;85;25839;-79
2021/05/05 12:36:11;;;;;;;5.25;3.25;;;;;;;11.02;77.84;98922.11;1674923;85;25840;-78
2021/05/05 12:38:45;;;;;;;6.55;3.67;;;;;;;10.94;77.85;98912.80;1671531;85;25883;-80
2021/05/05 12:41:18;;;;;;;4.83;3.85;;;;;;;10.85;76.82;98907.54;1673428;85;25698;-79
2021/05/05 12:43:48;;;;;;;5.12;3.35;;;;;;;10.76;77.50;98910.94;1672947;85;26695;-78
2021/05/05 12:49:03;;;;;;;4.47;3.15;;;;;;;10.56;77.53;98901.33;1662649;84;25672;-78
2021/05/05 12:51:36;;;;;;;5.75;2.95;;;;;;;10.46;77.47;98898.53;1658741;84;25798;-77
2021/05/05 12:54:05;;;;;;;6.37;3.33;;;;;;;10.38;78.04;98891.33;1628124;86;26363;-76
2021/05/05 12:59:28;;;;;;;7.17;3.90;;;;;;;10.25;78.10;98905.41;1674224;84;26516;-74
2021/05/05 13:02:11;;;;;;;6.58;3.25;;;;;;;10.25;78.53;98901.94;1836033;75;35035;-75
2021/05/05 13:05:06;;;;;;;6.50;3.65;;;;;;;10.15;78.67;98905.88;1808983;77;25712;-75
2021/05/05 13:07:42;;;;;;;6.55;3.42;;;;;;;10.10;78.64;98900.14;1737127;81;25783;-73
2021/05/05 13:10:23;;;;;;;5.40;3.20;;;;;;;10.08;79.52;98901.05;1736537;81;25712;-72
2021/05/05 13:30:19;;;;;;;6.10;3.25;;;;;;;9.76;80.38;98893.30;1736481;81;26034;-68
2021/05/05 13:33:07;;;;;;;4.95;3.05;;;;;;;9.70;80.99;98896.79;1737117;81;25646;-67
2021/05/05 13:35:41;;;;;;;4.15;3.30;;;;;;;9.63;81.01;98889.78;1736528;81;26842;-67
2021/05/05 13:38:30;;;;;;;7.03;3.37;;;;;;;9.60;80.79;98880.23;1736857;81;26116;-67
2021/05/05 13:41:05;;;;;;;9.13;3.77;;;;;;;9.58;81.42;98875.73;1737518;81;25609;-67
2021/05/05 13:48:49;;;;;;;4.87;3.37;;;;;;;9.50;81.10;98855.80;1736200;81;25934;-68
2021/05/05 13:51:21;;;;;;;4.55;3.10;;;;;;;9.49;81.15;98859.64;1736568;81;25597;-67
2021/05/05 13:53:51;;;;;;;7.95;3.40;;;;;;;9.50;81.54;98870.65;1736880;81;25818;-66
2021/05/05 13:56:22;;;;;;;8.08;3.67;;;;;;;9.48;81.61;98880.45;1737929;81;25692;-66
2021/05/05 13:58:49;;;;;;;4.45;3.30;;;;;;;9.44;81.58;98874.14;1709495;81;25677;-67
2021/05/05 14:01:16;;;;;;;6.17;2.92;;;;;;;9.46;81.77;98871.89;1737473;81;25795;-66
2021/05/05 14:03:44;;;;;;;6.22;3.10;;;;;;;9.44;81.50;98872.02;1736043;81;26394;-65
2021/05/05 14:06:12;;;;;;;8.05;3.00;;;;;;;9.43;81.61;98885.27;1738096;81;25694;-66
2021/05/05 14:08:40;;;;;;;4.10;2.95;;;;;;;9.41;82.01;98876.72;1737925;81;25625;-66
2021/05/05 14:11:07;;;;;;;4.83;3.08;;;;;;;9.40;81.82;98874.59;1738046;81;25616;-69
2021/05/05 14:13:34;;;;;;;3.95;2.87;;;;;;;9.40;82.34;98873.79;1735823;81;26630;-66
2021/05/05 14:16:02;;;;;;;4.45;3.55;;;;;;;9.35;82.13;98867.50;1736880;81;25695;-65
2021/05/05 14:18:29;;;;;;;4.97;3.45;;;;;;;9.33;82.77;98868.94;1736448;81;26361;-67
2021/05/05 14:21:00;;;;;;;5.45;3.40;;;;;;;9.31;82.15;98869.30;1736443;81;25829;-66
2021/05/05 14:23:25;;;;;;;5.53;3.30;;;;;;;9.29;82.34;98872.87;1735939;81;25853;-66
2021/05/05 14:25:52;;;;;;;4.40;3.47;;;;;;;9.25;82.36;98864.45;1736440;81;28203;-66
2021/05/05 14:28:21;;;;;;;8.48;3.40;;;;;;;9.23;82.28;98857.23;1736448;81;25885;-67
2021/05/05 14:30:49;;;;;;;5.35;3.25;;;;;;;9.20;82.80;98846.56;1736265;81;25983;-66
2021/05/05 14:33:16;;;;;;;4.62;3.67;;;;;;;9.17;82.44;98858.02;1734850;81;25684;-66
2021/05/05 14:35:42;;;;;;;5.55;3.50;;;;;;;9.15;82.60;98853.52;1735735;81;25596;-67
2021/05/05 14:40:47;;;;;;;7.47;3.90;;;;;;;9.18;82.83;98864.19;1862592;75;34850;-64
2021/05/05 14:46:08;;;;;;;5.42;3.33;;;;;;;9.12;83.42;98869.80;1848813;76;30186;-66
2021/05/05 14:48:30;;;;;;;4.97;3.20;;;;;;;9.10;82.74;98871.27;1844790;76;25658;-66
2021/05/05 14:50:59;;;;;;;8.10;3.85;;;;;;;9.06;83.13;98863.60;1846079;76;25642;-66
2021/05/05 14:53:29;;;;;;;7.67;3.70;;;;;;;9.03;83.02;98863.72;1847831;76;25560;-65
2021/05/05 14:55:57;;;;;;;4.92;3.90;;;;;;;9.03;83.27;98862.94;1845960;76;26556;-65
2021/05/05 14:58:31;;;;;;;9.10;4.22;;;;;;;9.01;83.21;98867.31;1845599;76;25805;-66
2021/05/05 15:00:58;;;;;;;9.35;4.78;;;;;;;8.98;83.21;98865.28;1846834;76;25625;-67
2021/05/05 15:03:29;;;;;;;8.05;4.85;;;;;;;8.98;83.42;98879.55;1843040;76;25884;-68
2021/05/05 15:05:59;;;;;;;9.45;4.85;;;;;;;8.97;83.72;98888.77;1842037;76;25637;-68
2021/05/05 15:16:55;;;;;;;9.33;5.05;;;;;;;8.89;84.24;98889.64;1811704;77;25796;-68
2021/05/05 15:37:31;;;;;;;7.80;4.33;;;;;;;8.81;83.73;98775.14;1803862;77;26316;-67
2021/05/05 15:39:55;;;;;;;7.58;4.30;;;;;;;8.85;84.06;98771.98;1802584;77;26538;-67
2021/05/05 15:42:22;;;;;;;6.25;4.70;;;;;;;8.86;84.01;98775.70;1805905;77;25691;-67
2021/05/05 15:44:56;;;;;;;8.93;4.37;;;;;;;8.87;83.81;98765.16;1807869;77;25736;-67
2021/05/05 15:47:23;;;;;;;6.58;4.80;;;;;;;8.91;84.25;98782.23;1806908;77;25634;-66
2021/05/05 15:49:56;;;;;;;5.20;4.35;;;;;;;8.92;84.11;98808.08;1806763;77;26390;-67
2021/05/05 15:52:27;;;;;;;7.30;4.55;;;;;;;8.94;84.02;98808.53;1813104;77;26352;-67
2021/05/05 15:54:53;;;;;;;7.53;4.50;;;;;;;8.95;83.92;98790.43;1809685;77;27092;-67
2021/05/05 15:57:20;;;;;;;6.58;4.40;;;;;;;8.96;83.97;98805.50;1804791;77;26549;-66
2021/05/05 16:05:03;;;;;;;6.72;4.12;;;;;;;9.01;83.85;98800.44;1793171;77;25693;-66
2021/05/05 16:13:08;;;;;;;7.37;4.55;;;;;;;9.08;84.30;98819.57;1802521;77;25559;-65
2021/05/05 16:17:53;;;;;;;6.28;4.45;;;;;;;9.07;83.84;98815.29;1807098;77;25663;-66
2021/05/05 16:20:23;;;;;;;7.85;4.47;;;;;;;9.08;83.91;98823.62;1805440;77;26209;-65
2021/05/05 16:25:23;;;;;;;7.97;4.70;;;;;;;9.05;84.19;98846.64;1804374;77;26386;-66
2021/05/05 16:54:28;;;;;;;8.97;6.63;;;;;;;8.95;83.84;98824.92;1862187;75;34821;-65
2021/05/05 17:10:15;;;;;;;9.23;5.90;;;;;;;8.91;84.32;98836.73;1816684;78;26435;-65
2021/05/05 17:12:45;;;;;;;9.03;6.05;;;;;;;8.86;84.26;98835.02;1797205;78;26061;-65
2021/05/05 17:15:26;;;;;;;7.87;5.85;;;;;;;8.85;84.42;98836.70;1746689;79;25336;-65
2021/05/05 17:58:36;;;;;;;12.60;8.05;;;;;;;8.50;84.80;98858.02;1845208;76;25656;-68
2021/05/05 18:19:13;;;;;;;18.23;11.25;;;;;;;8.19;85.79;98863.22;1790463;79;25752;-68
2021/05/05 18:24:30;;;;;;;18.60;13.10;;;;;;;8.21;85.75;98838.66;1832203;75;34716;-69
2021/05/05 18:26:58;;;;;;;22.42;15.15;;;;;;;8.13;85.94;98832.20;1800019;77;25691;-69
2021/05/05 18:31:45;;;;;;;19.25;13.98;;;;;;;8.08;86.25;98836.43;1789425;77;25916;-68
2021/05/05 18:34:11;;;;;;;19.12;14.35;;;;;;;8.09;85.96;98843.41;1803398;77;25636;-68
2021/05/05 18:36:38;;;;;;;21.25;14.30;;;;;;;8.08;86.09;98850.47;1805494;77;25603;-67
2021/05/05 18:39:12;;;;;;;20.48;13.95;;;;;;;8.05;86.10;98841.13;1802827;77;25900;-68
2021/05/05 18:41:42;;;;;;;18.62;13.58;;;;;;;8.04;86.34;98839.56;1800657;77;25768;-68
2021/05/05 19:33:53;;;;;;;22.70;16.07;;;;;;;7.87;87.91;98931.99;1752046;81;25636;-67
